createdAt,value
2023-04-26T18:26:05.223Z,101325.03
2023-04-26T18:28:31.950Z,101321.72
2023-04-26T18:30:59.676Z,101337.59
2023-04-26T18:33:28.360Z,101331.44
2023-04-26T18:35:55.234Z,101334.34
2023-04-26T18:38:22.121Z,101337.91
2023-04-26T18:40:50.054Z,101334.59
2023-04-26T18:43:16.974Z,101334.94
2023-04-26T18:45:43.968Z,101347.06
2023-04-26T18:48:12.139Z,101345.44
2023-04-26T18:50:38.955Z,101339.47
2023-04-26T18:53:05.716Z,101341.63
2023-04-26T18:55:32.727Z,101345.31
2023-04-26T18:57:59.461Z,101342.78
2023-04-26T19:00:26.289Z,101338.56
2023-04-26T19:02:53.601Z,101342.19
2023-04-26T19:05:20.478Z,101340.66
2023-04-26T19:07:47.221Z,101353.19
2023-04-26T19:10:16.354Z,101350.88
2023-04-26T19:12:43.169Z,101345.81
2023-04-26T19:15:10.232Z,101349.50
2023-04-26T19:17:37.434Z,101342.81
2023-04-26T19:20:07.588Z,101330.50
2023-04-26T19:22:34.349Z,101358.19
2023-04-26T19:25:01.371Z,101360.22
2023-04-26T19:27:28.096Z,101352.75
2023-04-26T19:29:54.851Z,101365.66
2023-04-26T19:32:23.118Z,101363.16
2023-04-26T19:34:49.973Z,101356.22
2023-04-26T19:37:16.750Z,101351.13
2023-04-26T19:39:43.961Z,101360.94
2023-04-26T19:42:10.983Z,101358.56
2023-04-26T19:44:39.764Z,101362.09
2023-04-26T19:47:07.047Z,101343.53
2023-04-26T19:49:34.892Z,101355.47
2023-04-26T19:52:02.324Z,101355.69
2023-04-26T19:54:30.575Z,101357.47
2023-04-26T19:56:57.339Z,101363.81
2023-04-26T19:59:24.120Z,101364.81
2023-04-26T20:01:53.609Z,101365.72
2023-04-26T20:04:20.810Z,101363.34
2023-04-26T20:06:47.650Z,101359.09
2023-04-26T20:09:14.646Z,101364.50
2023-04-26T20:11:41.396Z,101355.91
2023-04-26T20:14:08.192Z,101367.34
2023-04-26T20:16:35.631Z,101358.88
2023-04-26T20:19:02.678Z,101362.56
2023-04-26T20:21:29.424Z,101362.66
2023-04-26T20:23:56.222Z,101361.94
2023-04-26T20:26:23.020Z,101361.94
2023-04-26T20:28:49.877Z,101363.00
2023-04-26T20:31:16.627Z,101357.69
2023-04-26T20:33:43.351Z,101358.59
2023-04-26T20:36:11.344Z,101364.78
2023-04-26T20:38:38.167Z,101354.38
2023-04-26T20:41:05.158Z,101349.91
2023-04-26T20:43:32.025Z,101347.28
2023-04-26T20:45:58.822Z,101341.88
2023-04-26T20:48:25.748Z,101347.13
2023-04-26T20:50:54.722Z,101340.16
2023-04-26T20:53:21.606Z,101340.16
2023-04-26T20:55:48.423Z,101330.56
2023-04-26T20:58:15.248Z,101334.00
2023-04-26T21:00:42.762Z,101341.88
2023-04-26T21:03:09.816Z,101335.81
2023-04-26T21:05:36.648Z,101338.50
2023-04-26T21:08:03.877Z,101336.63
2023-04-26T21:10:30.929Z,101340.97
2023-04-26T21:12:57.646Z,101343.59
2023-04-26T21:15:24.521Z,101344.44
2023-04-26T21:17:51.354Z,101345.28
2023-04-26T21:20:18.271Z,101348.84
2023-04-26T21:22:45.050Z,101349.59
2023-04-26T21:25:16.951Z,101356.72
2023-04-26T21:27:43.760Z,101361.94
2023-04-26T21:30:11.478Z,101360.25
2023-04-26T21:32:40.393Z,101365.56
2023-04-26T21:35:07.977Z,101369.09
2023-04-26T21:37:34.931Z,101374.25
2023-04-26T21:40:01.841Z,101365.56
2023-04-26T21:42:28.683Z,101369.81
2023-04-26T21:44:55.466Z,101376.88
2023-04-26T21:47:22.298Z,101370.09
2023-04-26T21:49:49.303Z,101368.25
2023-04-26T21:52:16.274Z,101360.53
2023-04-26T21:54:43.024Z,101359.75
2023-04-26T21:57:09.784Z,101364.16
2023-04-26T21:59:36.714Z,101363.16
2023-04-26T22:02:03.652Z,101360.63
2023-04-26T22:04:30.554Z,101354.50
2023-04-26T22:06:57.395Z,101359.75
2023-04-26T22:09:24.241Z,101356.22
2023-04-26T22:11:51.024Z,101355.53
2023-04-26T22:14:17.826Z,101354.50
2023-04-26T22:16:44.679Z,101359.75
2023-04-26T22:19:11.671Z,101359.69
2023-04-26T22:21:38.672Z,101359.75
2023-04-26T22:24:05.823Z,101334.06
2023-04-26T22:26:32.584Z,101347.59
2023-04-26T22:28:59.444Z,101341.41
2023-04-26T22:31:26.308Z,101342.41
2023-04-26T22:33:53.062Z,101348.72
2023-04-26T22:36:19.836Z,101347.88
2023-04-26T22:38:46.636Z,101339.38
2023-04-26T22:41:13.424Z,101341.09
2023-04-26T22:43:41.833Z,101347.19
2023-04-26T22:46:08.653Z,101355.88
2023-04-26T22:48:35.548Z,101355.81
2023-04-26T22:51:02.443Z,101359.19
2023-04-26T22:53:30.478Z,101345.31
2023-04-26T22:55:57.286Z,101351.41
2023-04-26T22:58:24.029Z,101350.50
2023-04-26T23:00:50.875Z,101348.78
2023-04-26T23:03:17.800Z,101353.25
2023-04-26T23:05:45.649Z,101345.41
2023-04-26T23:08:12.402Z,101343.78
2023-04-26T23:10:40.081Z,101345.53
2023-04-26T23:13:06.853Z,101343.22
2023-04-26T23:15:34.170Z,101345.84
2023-04-26T23:18:01.097Z,101338.03
2023-04-26T23:20:27.932Z,101339.81
2023-04-26T23:22:54.664Z,101338.94
2023-04-26T23:25:21.542Z,101334.63
2023-04-26T23:27:48.403Z,101343.47
2023-04-26T23:30:15.696Z,101339.94
2023-04-26T23:32:42.550Z,101333.88
2023-04-26T23:35:09.859Z,101325.94
2023-04-26T23:37:36.846Z,101330.31
2023-04-26T23:40:06.435Z,101333.78
2023-04-26T23:42:33.199Z,101331.25
2023-04-26T23:44:59.929Z,101333.00
2023-04-26T23:47:26.944Z,101326.06
2023-04-26T23:49:53.793Z,101324.50
2023-04-26T23:52:20.697Z,101335.78
2023-04-26T23:54:47.679Z,101320.97
2023-04-26T23:57:14.464Z,101321.81
2023-04-26T23:59:41.214Z,101325.44
